createdAt,value
2017-07-10T00:00:47.090Z,13.40
2017-07-10T00:03:15.160Z,13.77
2017-07-10T00:05:43.227Z,12.53
2017-07-10T00:08:11.300Z,13.40
2017-07-10T00:10:39.383Z,12.63
2017-07-10T00:13:08.227Z,14.13
2017-07-10T00:15:36.308Z,13.57
2017-07-10T00:18:04.388Z,13.80
2017-07-10T00:20:32.460Z,12.47
2017-07-10T00:23:00.526Z,14.00
2017-07-10T00:25:28.616Z,13.27
2017-07-10T00:27:56.675Z,13.30
2017-07-10T00:30:24.747Z,13.67
2017-07-10T00:32:52.835Z,14.37
2017-07-10T00:35:20.911Z,13.80
2017-07-10T00:37:48.990Z,15.27
2017-07-10T00:40:17.818Z,14.43
2017-07-10T00:42:46.424Z,15.83
2017-07-10T00:45:14.485Z,14.50
2017-07-10T00:47:43.479Z,18.27
2017-07-10T00:50:11.564Z,21.63
2017-07-10T00:52:39.632Z,20.60
2017-07-10T00:55:07.704Z,19.07
2017-07-10T00:57:35.790Z,18.63
2017-07-10T01:00:03.872Z,19.50
2017-07-10T01:02:31.960Z,17.90
2017-07-10T01:05:00.785Z,18.60
2017-07-10T01:07:28.854Z,18.30
2017-07-10T01:09:56.943Z,16.40
2017-07-10T01:12:25.003Z,16.73
2017-07-10T01:14:53.063Z,17.73
2017-07-10T01:17:21.488Z,14.93
2017-07-10T01:19:49.536Z,17.40
2017-07-10T01:22:17.623Z,17.47
2017-07-10T01:24:45.699Z,16.30
2017-07-10T01:27:13.774Z,17.93
2017-07-10T01:29:41.845Z,16.33
2017-07-10T01:32:09.921Z,17.20
2017-07-10T01:34:37.989Z,15.77
2017-07-10T01:37:06.050Z,17.03
2017-07-10T01:39:34.140Z,18.50
2017-07-10T01:42:02.967Z,18.90
2017-07-10T01:44:31.034Z,15.10
2017-07-10T01:46:59.124Z,17.67
2017-07-10T01:49:27.209Z,16.90
2017-07-10T01:51:55.272Z,15.83
2017-07-10T01:54:23.335Z,17.77
2017-07-10T01:56:51.410Z,16.60
2017-07-10T01:59:19.476Z,18.53
2017-07-10T02:01:47.569Z,17.33
2017-07-10T02:04:15.643Z,19.57
2017-07-10T02:06:43.710Z,15.87
2017-07-10T02:09:11.782Z,17.73
2017-07-10T02:11:39.852Z,17.80
2017-07-10T02:14:07.928Z,18.83
2017-07-10T02:16:36.001Z,19.77
2017-07-10T02:19:04.087Z,18.70
2017-07-10T02:21:32.912Z,21.67
2017-07-10T02:24:00.991Z,22.27
2017-07-10T02:26:29.080Z,20.00
2017-07-10T02:28:57.628Z,21.27
2017-07-10T02:31:25.651Z,20.77
2017-07-10T02:33:53.739Z,23.30
2017-07-10T02:36:22.567Z,20.83
2017-07-10T02:38:50.638Z,21.27
2017-07-10T02:41:18.726Z,21.23
2017-07-10T02:43:46.799Z,23.13
2017-07-10T02:46:14.897Z,24.33
2017-07-10T02:48:43.035Z,23.47
2017-07-10T02:51:11.109Z,22.93
2017-07-10T02:53:39.185Z,21.67
2017-07-10T02:56:07.379Z,25.57
2017-07-10T02:58:35.447Z,26.00
2017-07-10T03:01:03.523Z,25.47
2017-07-10T03:03:31.602Z,27.80
2017-07-10T03:06:00.438Z,30.13
2017-07-10T03:08:28.503Z,28.97
2017-07-10T03:10:56.589Z,32.53
2017-07-10T03:13:24.658Z,32.20
2017-07-10T03:15:52.737Z,34.07
2017-07-10T03:18:20.816Z,37.90
2017-07-10T03:20:48.895Z,32.23
2017-07-10T03:23:16.955Z,32.63
2017-07-10T03:25:45.029Z,35.70
2017-07-10T03:28:13.119Z,43.33
2017-07-10T03:30:41.180Z,39.17
2017-07-10T03:33:09.241Z,44.80
2017-07-10T03:35:37.604Z,33.97
2017-07-10T03:38:05.675Z,35.17
2017-07-10T03:40:33.740Z,30.73
2017-07-10T03:43:01.808Z,33.93
2017-07-10T03:45:29.885Z,37.90
2017-07-10T03:47:57.974Z,30.53
2017-07-10T03:50:26.040Z,36.63
2017-07-10T03:52:54.096Z,31.80
2017-07-10T03:55:22.165Z,28.00
2017-07-10T03:57:50.232Z,31.83
2017-07-10T04:00:18.307Z,30.43
2017-07-10T04:02:46.372Z,30.47
2017-07-10T04:05:14.462Z,26.50
2017-07-10T04:07:42.516Z,33.20
2017-07-10T04:10:10.579Z,34.07
2017-07-10T04:12:38.656Z,34.93
2017-07-10T04:15:06.713Z,32.03
2017-07-10T04:17:35.039Z,27.90
2017-07-10T04:20:03.931Z,30.93
2017-07-10T04:22:31.963Z,30.67
2017-07-10T04:25:00.072Z,33.27
2017-07-10T04:27:28.920Z,32.87
2017-07-10T04:29:57.020Z,28.37
2017-07-10T04:32:25.088Z,30.90
2017-07-10T04:34:53.173Z,31.17
2017-07-10T04:37:21.228Z,34.53
2017-07-10T04:39:49.309Z,34.20
2017-07-10T04:42:17.389Z,30.70
2017-07-10T04:44:45.512Z,31.20
2017-07-10T04:47:13.591Z,32.83
2017-07-10T04:49:41.666Z,30.67
2017-07-10T04:52:09.742Z,30.07
2017-07-10T04:54:37.817Z,30.57
2017-07-10T04:57:06.636Z,32.30
2017-07-10T04:59:34.719Z,34.50
2017-07-10T05:02:02.786Z,32.03
2017-07-10T05:04:30.861Z,30.93
2017-07-10T05:06:58.920Z,32.97
2017-07-10T05:09:26.987Z,39.70
2017-07-10T05:11:55.075Z,37.30
2017-07-10T05:14:23.124Z,37.43
2017-07-10T05:16:51.241Z,38.80
2017-07-10T05:19:19.295Z,37.10
2017-07-10T05:21:47.364Z,38.13
2017-07-10T05:24:15.432Z,37.57
2017-07-10T05:26:43.499Z,36.03
2017-07-10T05:29:11.585Z,40.33
2017-07-10T05:31:39.643Z,40.50
2017-07-10T05:34:07.747Z,36.03
2017-07-10T05:36:35.839Z,40.17
2017-07-10T05:39:03.906Z,35.00
2017-07-10T05:41:32.769Z,34.03
2017-07-10T05:44:00.810Z,34.23
2017-07-10T05:46:28.884Z,32.40
2017-07-10T05:48:56.961Z,33.77
2017-07-10T05:51:25.033Z,33.53
2017-07-10T05:53:53.139Z,32.13
2017-07-10T05:56:22.062Z,33.03
2017-07-10T05:58:50.128Z,35.00
2017-07-10T06:01:18.192Z,34.50
2017-07-10T06:03:46.242Z,32.33
2017-07-10T06:06:14.336Z,31.30
2017-07-10T06:08:42.403Z,32.97
2017-07-10T06:11:10.498Z,36.10
2017-07-10T06:13:39.163Z,37.13
2017-07-10T06:16:07.279Z,34.97
2017-07-10T06:18:36.119Z,38.37
2017-07-10T06:21:04.187Z,35.30
2017-07-10T06:23:32.266Z,35.00
2017-07-10T06:26:00.352Z,35.70
2017-07-10T06:28:28.406Z,36.93
2017-07-10T06:30:56.499Z,35.37
2017-07-10T06:33:24.584Z,32.63
2017-07-10T06:35:52.636Z,40.43
2017-07-10T06:38:20.715Z,40.83
2017-07-10T06:40:48.779Z,33.67
2017-07-10T06:43:16.851Z,39.17
2017-07-10T06:45:44.931Z,38.60
2017-07-10T06:48:13.001Z,40.60
2017-07-10T06:50:41.095Z,41.40
2017-07-10T06:53:09.155Z,43.22
2017-07-10T06:55:37.993Z,39.37
2017-07-10T06:58:06.078Z,38.43
2017-07-10T07:00:34.172Z,38.60
2017-07-10T07:03:02.237Z,41.07
2017-07-10T07:05:30.296Z,37.47
2017-07-10T07:07:58.869Z,39.17
2017-07-10T07:10:27.674Z,41.07
2017-07-10T07:12:55.751Z,40.30
2017-07-10T07:15:23.840Z,40.80
2017-07-10T07:17:51.907Z,73.33
2017-07-10T07:20:20.008Z,41.57
2017-07-10T07:22:48.080Z,42.37
2017-07-10T07:25:16.141Z,41.73
2017-07-10T07:27:44.208Z,41.60
2017-07-10T07:30:12.279Z,46.93
2017-07-10T07:32:40.351Z,40.87
2017-07-10T07:35:08.450Z,42.47
2017-07-10T07:37:37.298Z,43.97
2017-07-10T07:40:05.356Z,39.73
2017-07-10T07:42:33.419Z,33.97
2017-07-10T07:45:01.520Z,41.67
2017-07-10T07:47:29.588Z,40.83
2017-07-10T07:49:57.648Z,35.00
2017-07-10T07:52:25.726Z,36.23
2017-07-10T07:54:53.792Z,35.23
2017-07-10T07:57:21.887Z,38.80
2017-07-10T07:59:49.957Z,37.27
2017-07-10T08:02:18.015Z,36.90
2017-07-10T08:04:46.114Z,35.23
2017-07-10T08:07:14.180Z,37.47
2017-07-10T08:09:42.268Z,35.00
2017-07-10T08:12:10.335Z,34.00
2017-07-10T08:14:38.407Z,32.80
2017-07-10T08:17:06.499Z,37.47
2017-07-10T08:19:34.547Z,34.87
2017-07-10T08:22:02.619Z,33.53
2017-07-10T08:24:30.699Z,35.83
2017-07-10T08:26:58.819Z,32.20
2017-07-10T08:29:26.892Z,30.43
2017-07-10T08:31:54.955Z,32.33
2017-07-10T08:34:23.044Z,30.20
2017-07-10T08:36:51.114Z,29.90
2017-07-10T08:39:19.199Z,28.60
2017-07-10T08:41:47.269Z,28.47
2017-07-10T08:44:15.350Z,29.30
2017-07-10T08:46:43.431Z,31.63
2017-07-10T08:49:11.503Z,23.53
2017-07-10T08:51:39.596Z,21.10
2017-07-10T08:54:08.470Z,23.17
2017-07-10T08:56:36.540Z,25.17
2017-07-10T08:59:05.403Z,28.27
2017-07-10T09:01:33.483Z,25.40
2017-07-10T09:04:01.564Z,24.53
2017-07-10T09:06:30.395Z,23.50
2017-07-10T09:08:58.496Z,20.17
2017-07-10T09:11:26.552Z,22.43
2017-07-10T09:13:54.621Z,20.83
2017-07-10T09:16:22.691Z,20.80
2017-07-10T09:18:50.753Z,21.80
2017-07-10T09:21:18.840Z,21.63
2017-07-10T09:23:46.919Z,22.00
2017-07-10T09:26:14.978Z,21.17
2017-07-10T09:28:43.093Z,21.60
2017-07-10T09:31:11.946Z,23.47
2017-07-10T09:33:40.016Z,22.37
2017-07-10T09:36:08.091Z,21.43
2017-07-10T09:38:36.167Z,24.23
2017-07-10T09:41:04.239Z,22.30
2017-07-10T09:43:32.335Z,23.97
2017-07-10T09:46:00.391Z,20.73
2017-07-10T09:48:28.447Z,20.10
2017-07-10T09:50:56.532Z,18.10
2017-07-10T09:53:24.617Z,19.03
2017-07-10T09:55:53.487Z,18.10
2017-07-10T09:58:21.559Z,17.47
2017-07-10T10:00:50.395Z,17.00
2017-07-10T10:03:18.485Z,16.70
2017-07-10T10:05:46.555Z,19.23
2017-07-10T10:08:14.620Z,19.67
2017-07-10T10:10:42.721Z,20.17
2017-07-10T10:13:10.791Z,20.00
2017-07-10T10:15:39.635Z,22.53
2017-07-10T10:18:07.718Z,21.20
2017-07-10T10:20:35.792Z,19.63
2017-07-10T10:23:03.871Z,36.67
2017-07-10T10:25:31.967Z,21.77
2017-07-10T10:28:00.107Z,20.47
2017-07-10T10:30:28.149Z,26.13
2017-07-10T10:32:56.247Z,23.23
2017-07-10T10:35:24.314Z,21.17
2017-07-10T10:37:52.376Z,24.07
2017-07-10T10:40:20.536Z,24.90
2017-07-10T10:42:49.339Z,23.67
2017-07-10T10:45:17.426Z,25.33
2017-07-10T10:47:45.491Z,25.37
2017-07-10T10:50:13.558Z,25.73
2017-07-10T10:52:41.636Z,24.97
2017-07-10T10:55:09.707Z,24.80
2017-07-10T10:57:37.795Z,25.63
2017-07-10T11:00:05.871Z,26.33
2017-07-10T11:02:34.371Z,27.50
2017-07-10T11:05:02.478Z,26.40
2017-07-10T11:07:30.555Z,25.77
2017-07-10T11:09:58.623Z,29.30
2017-07-10T11:12:26.859Z,25.70
2017-07-10T11:14:54.922Z,29.87
2017-07-10T11:17:23.783Z,28.93
2017-07-10T11:19:52.423Z,31.20
2017-07-10T11:22:20.486Z,28.97
2017-07-10T11:24:48.566Z,32.13
2017-07-10T11:27:16.642Z,31.13
2017-07-10T11:29:44.748Z,33.70
2017-07-10T11:32:12.830Z,33.13
2017-07-10T11:34:40.945Z,34.90
2017-07-10T11:37:09.041Z,35.10
2017-07-10T11:39:37.130Z,35.90
2017-07-10T11:42:05.207Z,36.23
2017-07-10T11:44:33.283Z,40.90
2017-07-10T11:47:01.359Z,40.23
2017-07-10T11:49:29.427Z,43.00
2017-07-10T11:51:57.495Z,40.73
2017-07-10T11:54:25.570Z,45.57
2017-07-10T11:56:53.659Z,40.53
2017-07-10T11:59:21.720Z,39.73
2017-07-10T12:01:49.803Z,41.07
2017-07-10T12:04:17.920Z,41.37
2017-07-10T12:06:46.763Z,44.00
2017-07-10T12:09:14.829Z,41.87
2017-07-10T12:11:42.933Z,40.10
2017-07-10T12:14:11.046Z,38.10
2017-07-10T12:16:39.907Z,31.73
2017-07-10T12:19:07.973Z,36.03
2017-07-10T12:21:36.054Z,34.13
2017-07-10T12:24:04.153Z,38.00
2017-07-10T12:26:32.198Z,31.93
2017-07-10T12:29:00.284Z,30.60
2017-07-10T12:31:28.366Z,34.80
2017-07-10T12:33:57.287Z,33.00
2017-07-10T12:36:25.354Z,28.97
2017-07-10T12:38:53.435Z,30.30
2017-07-10T12:41:21.604Z,32.20
2017-07-10T12:43:49.703Z,35.73
2017-07-10T12:46:17.757Z,31.87
2017-07-10T12:48:45.827Z,28.67
2017-07-10T12:51:13.890Z,33.67
2017-07-10T12:53:41.999Z,34.70
2017-07-10T12:56:10.095Z,32.17
2017-07-10T12:58:38.148Z,31.20
2017-07-10T13:01:06.232Z,28.03
2017-07-10T13:03:35.095Z,26.37
2017-07-10T13:06:03.191Z,27.33
2017-07-10T13:08:32.077Z,28.00
2017-07-10T13:11:00.147Z,26.20
2017-07-10T13:13:28.257Z,23.83
2017-07-10T13:15:56.312Z,22.07
2017-07-10T13:18:25.275Z,21.13
2017-07-10T13:20:53.400Z,21.90
2017-07-10T13:23:21.480Z,21.20
2017-07-10T13:25:49.551Z,19.97
2017-07-10T13:28:17.622Z,18.27
2017-07-10T13:30:45.697Z,14.60
2017-07-10T13:33:13.797Z,18.17
2017-07-10T13:35:43.057Z,16.50
2017-07-10T13:38:11.947Z,15.63
2017-07-10T13:40:40.028Z,16.30
2017-07-10T13:43:08.082Z,13.97
2017-07-10T13:45:36.167Z,13.20
2017-07-10T13:48:04.240Z,10.97
2017-07-10T13:50:32.324Z,11.67
2017-07-10T13:53:00.426Z,9.60
2017-07-10T13:55:28.488Z,11.80
2017-07-10T13:57:56.573Z,15.53
2017-07-10T14:00:24.651Z,13.93
2017-07-10T14:02:52.716Z,14.03
2017-07-10T14:05:20.777Z,13.13
2017-07-10T14:07:49.645Z,12.43
2017-07-10T14:10:17.728Z,16.47
2017-07-10T14:12:46.585Z,15.60
2017-07-10T14:15:14.654Z,13.50
2017-07-10T14:17:42.762Z,14.93
2017-07-10T14:20:10.836Z,15.13
2017-07-10T14:22:38.891Z,15.20
2017-07-10T14:25:06.966Z,16.80
2017-07-10T14:27:35.040Z,16.63
2017-07-10T14:30:03.087Z,19.00
2017-07-10T14:32:31.189Z,16.10
2017-07-10T14:34:59.276Z,20.93
2017-07-10T14:37:28.135Z,22.03
2017-07-10T14:39:56.212Z,22.07
2017-07-10T14:42:24.279Z,20.50
2017-07-10T14:44:52.363Z,18.70
2017-07-10T14:47:20.443Z,19.90
2017-07-10T14:49:49.289Z,19.70
2017-07-10T14:52:17.373Z,22.50
2017-07-10T14:54:45.436Z,21.30
2017-07-10T14:57:13.524Z,19.53
2017-07-10T14:59:41.615Z,13.67
2017-07-10T15:02:10.075Z,13.13
2017-07-10T15:04:38.139Z,9.20
2017-07-10T15:07:06.204Z,8.63
2017-07-10T15:09:34.277Z,8.20
2017-07-10T15:12:02.372Z,8.70
2017-07-10T15:14:30.420Z,8.17
2017-07-10T15:16:58.486Z,7.93
2017-07-10T15:19:26.575Z,6.67
2017-07-10T15:21:54.695Z,6.63
2017-07-10T15:24:23.513Z,7.57
2017-07-10T15:26:51.583Z,7.10
2017-07-10T15:29:19.647Z,5.20
2017-07-10T15:31:47.748Z,7.27
2017-07-10T15:34:15.821Z,6.80
2017-07-10T15:36:43.911Z,7.43
2017-07-10T15:39:11.990Z,6.53
2017-07-10T15:41:40.044Z,5.97
2017-07-10T15:44:08.100Z,7.50
2017-07-10T15:46:36.180Z,7.20
2017-07-10T15:49:04.429Z,6.80
2017-07-10T15:51:32.472Z,7.40
2017-07-10T15:54:01.338Z,11.20
2017-07-10T15:56:29.396Z,6.87
2017-07-10T15:58:57.460Z,6.93
2017-07-10T16:01:25.568Z,7.47
2017-07-10T16:03:53.620Z,7.00
2017-07-10T16:06:21.699Z,6.60
2017-07-10T16:08:49.763Z,7.57
2017-07-10T16:11:17.840Z,7.00
2017-07-10T16:13:45.911Z,6.47
2017-07-10T16:16:13.983Z,7.10
2017-07-10T16:18:42.034Z,6.93
2017-07-10T16:21:10.121Z,7.93
2017-07-10T16:23:38.195Z,7.20
2017-07-10T16:26:06.313Z,7.07
2017-07-10T16:28:34.374Z,7.43
2017-07-10T16:31:02.463Z,9.30
2017-07-10T16:33:31.307Z,7.70
2017-07-10T16:35:59.475Z,10.50
2017-07-10T16:38:27.519Z,7.57
2017-07-10T16:40:55.666Z,7.93
2017-07-10T16:43:24.488Z,7.40
2017-07-10T16:45:52.551Z,7.60
2017-07-10T16:48:20.650Z,8.40
2017-07-10T16:50:48.728Z,6.73
2017-07-10T16:53:16.796Z,7.70
2017-07-10T16:55:54.026Z,7.57
2017-07-10T16:58:22.131Z,8.23
2017-07-10T17:00:50.208Z,8.60
2017-07-10T17:03:18.273Z,8.50
2017-07-10T17:05:46.367Z,8.40
2017-07-10T17:08:14.432Z,9.20
2017-07-10T17:10:42.509Z,8.10
2017-07-10T17:13:10.602Z,8.53
2017-07-10T17:15:38.671Z,8.67
2017-07-10T17:18:06.726Z,8.37
2017-07-10T17:20:34.789Z,8.67
2017-07-10T17:23:02.851Z,9.80
2017-07-10T17:25:30.944Z,10.10
2017-07-10T17:27:59.006Z,13.27
2017-07-10T17:30:27.106Z,15.90
2017-07-10T17:32:55.175Z,18.30
2017-07-10T17:35:23.247Z,19.53
2017-07-10T17:37:51.328Z,21.57
2017-07-10T17:40:20.155Z,20.93
2017-07-10T17:42:48.239Z,22.53
2017-07-10T17:45:16.347Z,21.93
2017-07-10T17:47:44.448Z,22.23
2017-07-10T17:50:13.623Z,22.47
2017-07-10T17:52:41.698Z,24.20
2017-07-10T17:55:10.542Z,23.27
2017-07-10T17:57:38.633Z,24.83
2017-07-10T18:00:06.696Z,22.77
2017-07-10T18:02:34.809Z,24.10
2017-07-10T18:05:02.880Z,25.30
2017-07-10T18:07:30.943Z,24.87
2017-07-10T18:09:59.801Z,23.43
2017-07-10T18:12:27.891Z,22.63
2017-07-10T18:14:55.962Z,22.00
2017-07-10T18:17:24.055Z,19.87
2017-07-10T18:19:52.991Z,22.60
2017-07-10T18:22:21.072Z,23.17
2017-07-10T18:24:49.175Z,22.63
2017-07-10T18:27:18.015Z,23.80
2017-07-10T18:29:46.907Z,21.33
2017-07-10T18:32:14.999Z,23.33
2017-07-10T18:34:43.089Z,21.80
2017-07-10T18:37:11.183Z,24.63
2017-07-10T18:39:40.031Z,25.10
2017-07-10T18:42:08.100Z,21.60
2017-07-10T18:44:36.200Z,21.57
2017-07-10T18:47:04.316Z,24.20
2017-07-10T18:49:32.409Z,23.77
2017-07-10T18:52:00.472Z,24.17
2017-07-10T18:54:28.536Z,24.40
2017-07-10T18:56:56.629Z,22.20
2017-07-10T18:59:24.719Z,24.53
2017-07-10T19:01:52.811Z,23.50
2017-07-10T19:04:21.656Z,24.00
2017-07-10T19:06:49.724Z,25.83
2017-07-10T19:09:17.875Z,24.57
2017-07-10T19:11:45.953Z,24.77
2017-07-10T19:14:14.037Z,26.50
2017-07-10T19:16:42.136Z,24.17
2017-07-10T19:19:10.208Z,22.93
2017-07-10T19:21:38.292Z,23.73
2017-07-10T19:24:07.168Z,24.23
2017-07-10T19:26:35.234Z,23.53
2017-07-10T19:29:03.311Z,26.37
2017-07-10T19:31:31.383Z,25.03
2017-07-10T19:33:59.464Z,23.53
2017-07-10T19:36:28.304Z,25.33
2017-07-10T19:38:56.405Z,29.73
2017-07-10T19:41:24.487Z,29.07
2017-07-10T19:43:52.556Z,29.30
2017-07-10T19:46:20.647Z,26.70
2017-07-10T19:48:49.479Z,22.73
2017-07-10T19:51:17.789Z,17.70
2017-07-10T19:53:45.907Z,15.10
2017-07-10T19:56:15.367Z,15.37
2017-07-10T19:58:43.489Z,13.83
2017-07-10T20:01:11.571Z,11.97
2017-07-10T20:03:39.659Z,13.97
2017-07-10T20:06:07.757Z,13.90
2017-07-10T20:08:35.904Z,14.60
2017-07-10T20:11:04.044Z,14.30
2017-07-10T20:13:32.824Z,14.73
2017-07-10T20:16:00.932Z,14.57
2017-07-10T20:18:29.026Z,13.67
2017-07-10T20:20:57.110Z,16.40
2017-07-10T20:23:25.941Z,13.37
2017-07-10T20:25:54.052Z,13.27
2017-07-10T20:28:22.892Z,12.93
2017-07-10T20:30:51.445Z,16.37
2017-07-10T20:33:20.271Z,15.50
2017-07-10T20:35:48.365Z,15.80
2017-07-10T20:38:16.476Z,16.27
2017-07-10T20:40:44.532Z,15.40
2017-07-10T20:43:13.384Z,19.23
2017-07-10T20:45:41.447Z,17.70
2017-07-10T20:48:09.543Z,22.57
2017-07-10T20:50:37.625Z,23.90
2017-07-10T20:53:06.499Z,25.00
2017-07-10T20:55:34.568Z,26.20
2017-07-10T20:58:02.656Z,25.43
2017-07-10T21:00:30.713Z,23.83
2017-07-10T21:02:58.796Z,21.00
2017-07-10T21:05:26.872Z,19.93
2017-07-10T21:07:54.976Z,16.73
2017-07-10T21:10:23.056Z,18.10
2017-07-10T21:12:51.111Z,17.87
2017-07-10T21:15:19.226Z,19.80
2017-07-10T21:17:47.298Z,18.53
2017-07-10T21:20:15.377Z,17.47
2017-07-10T21:22:43.478Z,17.27
2017-07-10T21:25:11.570Z,18.60
2017-07-10T21:27:39.620Z,17.77
2017-07-10T21:30:07.743Z,25.37
2017-07-10T21:32:35.846Z,20.97
2017-07-10T21:35:04.667Z,20.50
2017-07-10T21:37:32.765Z,19.17
2017-07-10T21:40:00.831Z,22.13
2017-07-10T21:42:28.901Z,21.00
2017-07-10T21:44:56.976Z,21.27
2017-07-10T21:47:25.054Z,20.07
2017-07-10T21:49:53.157Z,20.50
2017-07-10T21:52:21.219Z,22.27
2017-07-10T21:54:49.284Z,23.43
2017-07-10T21:57:17.373Z,20.60
2017-07-10T21:59:46.195Z,20.03
2017-07-10T22:02:14.280Z,18.90
2017-07-10T22:04:42.377Z,20.70
2017-07-10T22:07:10.470Z,22.67
2017-07-10T22:09:38.532Z,20.43
2017-07-10T22:12:06.603Z,21.53
2017-07-10T22:14:34.678Z,20.10
2017-07-10T22:17:02.772Z,18.90
2017-07-10T22:19:30.863Z,21.10
2017-07-10T22:21:59.714Z,21.30
2017-07-10T22:24:27.799Z,19.70
2017-07-10T22:26:55.872Z,20.93
2017-07-10T22:29:23.943Z,19.63
2017-07-10T22:31:52.031Z,20.47
2017-07-10T22:34:20.101Z,20.70
2017-07-10T22:36:48.964Z,21.37
2017-07-10T22:39:17.036Z,21.23
2017-07-10T22:41:45.126Z,23.83
2017-07-10T22:44:13.215Z,21.53
2017-07-10T22:46:42.053Z,19.37
2017-07-10T22:49:10.116Z,23.03
2017-07-10T22:51:38.207Z,20.90
2017-07-10T22:54:06.291Z,19.40
2017-07-10T22:56:34.361Z,20.57
2017-07-10T22:59:02.466Z,19.57
2017-07-10T23:01:31.313Z,17.80
2017-07-10T23:03:59.401Z,19.23
2017-07-10T23:06:27.479Z,18.77
2017-07-10T23:08:56.305Z,19.63
2017-07-10T23:11:24.395Z,19.00
2017-07-10T23:13:52.648Z,17.73
2017-07-10T23:16:20.708Z,17.77
2017-07-10T23:18:48.796Z,21.57
2017-07-10T23:21:16.877Z,18.03
2017-07-10T23:23:44.940Z,17.43
2017-07-10T23:26:13.019Z,17.03
2017-07-10T23:28:41.107Z,16.20
2017-07-10T23:31:09.163Z,16.60
2017-07-10T23:33:38.048Z,17.33
2017-07-10T23:36:06.280Z,15.00
2017-07-10T23:38:34.362Z,14.60
2017-07-10T23:41:02.439Z,16.40
2017-07-10T23:43:30.524Z,14.70
2017-07-10T23:45:58.614Z,14.50
2017-07-10T23:48:26.692Z,14.93
2017-07-10T23:50:54.747Z,12.60
2017-07-10T23:53:22.826Z,14.23
2017-07-10T23:55:50.911Z,15.10
2017-07-10T23:58:18.985Z,14.50
